Hodge, California
Current Conditions -  °F | °C
As of 3:50 PM on Thursday 27 Nov 2014 (Local Time) from KDAG Reporting Station
Clear Clear  
Wind Chill: 69°   Ceiling: Unl
Heat Index: 69°   Visibility: 10mi
Dew Point: 13°   Wind: 3mph
Humidity: 11%   Direction: 70°ENE
Pressure: 30.14"   Gusts: NA
Location:  35.1476°N, 117.206°W
Report Text: KDAG 272350Z AUTO 07003KT 10SM CLR 21/M11 A3014 RMK AO2 SLP198 T02061106 10217 20144 56015
Loading
Personal Weather Stations






























Interactive Weather Map New forecast layout! Learn more

10-Day Weather Forecast

Advertisements
Track Severe Weather on mobile